sensor_id;sensor_type;location;lat;lon;timestamp;temperature;humidity
14769;DHT22;7476;49.404;11.152;2023-07-28T00:00:18;16.10;99.90
14769;DHT22;7476;49.404;11.152;2023-07-28T00:02:46;16.10;99.90
14769;DHT22;7476;49.404;11.152;2023-07-28T00:05:12;16.10;99.90
14769;DHT22;7476;49.404;11.152;2023-07-28T00:07:39;16.10;99.90
14769;DHT22;7476;49.404;11.152;2023-07-28T00:10:06;16.10;99.90
14769;DHT22;7476;49.404;11.152;2023-07-28T00:12:34;16.20;99.90
14769;DHT22;7476;49.404;11.152;2023-07-28T00:15:00;16.10;99.90
14769;DHT22;7476;49.404;11.152;2023-07-28T00:17:27;16.10;99.90
14769;DHT22;7476;49.404;11.152;2023-07-28T00:19:55;16.10;99.90
14769;DHT22;7476;49.404;11.152;2023-07-28T00:22:22;16.10;99.90
14769;DHT22;7476;49.404;11.152;2023-07-28T00:24:48;16.10;99.90
14769;DHT22;7476;49.404;11.152;2023-07-28T00:27:15;16.10;99.90
14769;DHT22;7476;49.404;11.152;2023-07-28T00:29:42;16.10;99.90
14769;DHT22;7476;49.404;11.152;2023-07-28T00:32:08;16.10;99.90
14769;DHT22;7476;49.404;11.152;2023-07-28T00:34:35;16.10;99.90
14769;DHT22;7476;49.404;11.152;2023-07-28T00:37:03;16.10;99.90
14769;DHT22;7476;49.404;11.152;2023-07-28T00:39:30;16.00;99.90
14769;DHT22;7476;49.404;11.152;2023-07-28T00:41:57;16.00;99.90
14769;DHT22;7476;49.404;11.152;2023-07-28T00:44:23;16.00;99.90
14769;DHT22;7476;49.404;11.152;2023-07-28T00:46:50;16.00;99.90
14769;DHT22;7476;49.404;11.152;2023-07-28T00:49:17;16.00;99.90
14769;DHT22;7476;49.404;11.152;2023-07-28T00:51:44;16.10;99.90
14769;DHT22;7476;49.404;11.152;2023-07-28T00:54:12;16.10;99.90
14769;DHT22;7476;49.404;11.152;2023-07-28T00:56:39;16.10;99.90
14769;DHT22;7476;49.404;11.152;2023-07-28T00:59:06;16.10;99.90
14769;DHT22;7476;49.404;11.152;2023-07-28T01:01:32;16.00;99.90
14769;DHT22;7476;49.404;11.152;2023-07-28T01:03:59;16.10;99.90
14769;DHT22;7476;49.404;11.152;2023-07-28T01:06:33;16.10;99.90
14769;DHT22;7476;49.404;11.152;2023-07-28T01:09:03;16.00;99.90
14769;DHT22;7476;49.404;11.152;2023-07-28T01:11:31;16.00;99.90
14769;DHT22;7476;49.404;11.152;2023-07-28T01:13:58;16.10;99.90
14769;DHT22;7476;49.404;11.152;2023-07-28T01:16:24;16.00;99.90
14769;DHT22;7476;49.404;11.152;2023-07-28T01:18:51;16.00;99.90
14769;DHT22;7476;49.404;11.152;2023-07-28T01:21:21;16.10;99.90
14769;DHT22;7476;49.404;11.152;2023-07-28T01:24:01;16.10;99.90
14769;DHT22;7476;49.404;11.152;2023-07-28T01:26:34;16.10;99.90
14769;DHT22;7476;49.404;11.152;2023-07-28T01:29:02;16.10;99.90
14769;DHT22;7476;49.404;11.152;2023-07-28T01:31:30;16.10;99.90
14769;DHT22;7476;49.404;11.152;2023-07-28T01:33:56;16.10;99.90
14769;DHT22;7476;49.404;11.152;2023-07-28T01:36:23;16.10;99.90
14769;DHT22;7476;49.404;11.152;2023-07-28T01:38:50;16.10;99.90
14769;DHT22;7476;49.404;11.152;2023-07-28T01:41:16;16.10;99.90
14769;DHT22;7476;49.404;11.152;2023-07-28T01:43:44;16.00;99.90
14769;DHT22;7476;49.404;11.152;2023-07-28T01:46:11;16.00;99.90
14769;DHT22;7476;49.404;11.152;2023-07-28T01:48:38;16.10;99.90
14769;DHT22;7476;49.404;11.152;2023-07-28T01:51:04;16.10;99.90
14769;DHT22;7476;49.404;11.152;2023-07-28T01:53:31;16.10;99.90
14769;DHT22;7476;49.404;11.152;2023-07-28T01:55:58;16.10;99.90
14769;DHT22;7476;49.404;11.152;2023-07-28T01:58:26;16.00;99.90
14769;DHT22;7476;49.404;11.152;2023-07-28T02:00:54;16.00;99.90
14769;DHT22;7476;49.404;11.152;2023-07-28T02:03:21;16.10;99.90
14769;DHT22;7476;49.404;11.152;2023-07-28T02:05:48;16.10;99.90
14769;DHT22;7476;49.404;11.152;2023-07-28T02:08:15;16.10;99.90
14769;DHT22;7476;49.404;11.152;2023-07-28T02:10:43;16.00;99.90
14769;DHT22;7476;49.404;11.152;2023-07-28T02:13:09;16.10;99.90
14769;DHT22;7476;49.404;11.152;2023-07-28T02:15:36;16.10;99.90
14769;DHT22;7476;49.404;11.152;2023-07-28T02:18:04;16.10;99.90
14769;DHT22;7476;49.404;11.152;2023-07-28T02:20:31;16.20;99.90
14769;DHT22;7476;49.404;11.152;2023-07-28T02:22:58;16.20;99.90
14769;DHT22;7476;49.404;11.152;2023-07-28T02:25:25;16.10;99.90
14769;DHT22;7476;49.404;11.152;2023-07-28T02:27:52;16.10;99.90
14769;DHT22;7476;49.404;11.152;2023-07-28T02:30:18;16.10;99.90
14769;DHT22;7476;49.404;11.152;2023-07-28T02:32:45;16.10;99.90
14769;DHT22;7476;49.404;11.152;2023-07-28T02:35:13;16.10;99.90
14769;DHT22;7476;49.404;11.152;2023-07-28T02:37:40;16.10;99.90
14769;DHT22;7476;49.404;11.152;2023-07-28T02:40:09;16.10;99.90
14769;DHT22;7476;49.404;11.152;2023-07-28T02:42:35;16.10;99.90
14769;DHT22;7476;49.404;11.152;2023-07-28T02:45:02;16.10;99.90
14769;DHT22;7476;49.404;11.152;2023-07-28T02:47:29;16.10;99.90
14769;DHT22;7476;49.404;11.152;2023-07-28T02:49:55;16.10;99.90
14769;DHT22;7476;49.404;11.152;2023-07-28T02:52:23;16.10;99.90
14769;DHT22;7476;49.404;11.152;2023-07-28T02:54:50;16.10;99.90
14769;DHT22;7476;49.404;11.152;2023-07-28T02:57:16;16.10;99.90
14769;DHT22;7476;49.404;11.152;2023-07-28T02:59:43;16.10;99.90
14769;DHT22;7476;49.404;11.152;2023-07-28T03:02:10;16.10;99.90
14769;DHT22;7476;49.404;11.152;2023-07-28T03:04:37;16.10;99.90
14769;DHT22;7476;49.404;11.152;2023-07-28T03:07:04;16.10;99.90
14769;DHT22;7476;49.404;11.152;2023-07-28T03:09:32;16.10;99.90
14769;DHT22;7476;49.404;11.152;2023-07-28T03:11:58;16.00;99.90
14769;DHT22;7476;49.404;11.152;2023-07-28T03:14:25;16.00;99.90
14769;DHT22;7476;49.404;11.152;2023-07-28T03:16:52;16.00;99.90
14769;DHT22;7476;49.404;11.152;2023-07-28T03:19:18;16.00;99.90
14769;DHT22;7476;49.404;11.152;2023-07-28T03:21:45;16.00;99.90
14769;DHT22;7476;49.404;11.152;2023-07-28T03:24:12;16.10;99.90
14769;DHT22;7476;49.404;11.152;2023-07-28T03:26:40;16.10;99.90
14769;DHT22;7476;49.404;11.152;2023-07-28T03:29:06;16.10;99.90
14769;DHT22;7476;49.404;11.152;2023-07-28T03:31:33;16.00;99.90
14769;DHT22;7476;49.404;11.152;2023-07-28T03:34:01;16.00;99.90
14769;DHT22;7476;49.404;11.152;2023-07-28T03:36:27;16.00;99.90
14769;DHT22;7476;49.404;11.152;2023-07-28T03:38:54;16.00;99.90
14769;DHT22;7476;49.404;11.152;2023-07-28T03:41:21;16.00;99.90
14769;DHT22;7476;49.404;11.152;2023-07-28T03:43:49;16.00;99.90
14769;DHT22;7476;49.404;11.152;2023-07-28T03:46:15;16.00;99.90
14769;DHT22;7476;49.404;11.152;2023-07-28T03:48:42;16.00;99.90
14769;DHT22;7476;49.404;11.152;2023-07-28T03:51:09;16.00;99.90
14769;DHT22;7476;49.404;11.152;2023-07-28T03:53:35;16.10;99.90
14769;DHT22;7476;49.404;11.152;2023-07-28T03:56:03;16.10;99.90
14769;DHT22;7476;49.404;11.152;2023-07-28T03:58:30;16.10;99.90
14769;DHT22;7476;49.404;11.152;2023-07-28T04:00:58;16.10;99.90
14769;DHT22;7476;49.404;11.152;2023-07-28T04:03:24;16.10;99.90
14769;DHT22;7476;49.404;11.152;2023-07-28T04:05:51;16.10;99.90
14769;DHT22;7476;49.404;11.152;2023-07-28T04:08:18;16.20;99.90
14769;DHT22;7476;49.404;11.152;2023-07-28T04:10:44;16.10;99.90
14769;DHT22;7476;49.404;11.152;2023-07-28T04:13:11;16.20;99.90
14769;DHT22;7476;49.404;11.152;2023-07-28T04:15:37;16.20;99.90
14769;DHT22;7476;49.404;11.152;2023-07-28T04:18:05;16.20;99.90
14769;DHT22;7476;49.404;11.152;2023-07-28T04:20:32;16.20;99.90
14769;DHT22;7476;49.404;11.152;2023-07-28T04:22:59;16.20;99.90
14769;DHT22;7476;49.404;11.152;2023-07-28T04:25:26;16.20;99.90
14769;DHT22;7476;49.404;11.152;2023-07-28T04:27:53;16.20;99.90
14769;DHT22;7476;49.404;11.152;2023-07-28T04:30:20;16.20;99.90
14769;DHT22;7476;49.404;11.152;2023-07-28T04:32:47;16.30;99.90
14769;DHT22;7476;49.404;11.152;2023-07-28T04:35:15;16.20;99.90
14769;DHT22;7476;49.404;11.152;2023-07-28T04:37:41;16.30;99.90
14769;DHT22;7476;49.404;11.152;2023-07-28T04:40:09;16.30;99.90
14769;DHT22;7476;49.404;11.152;2023-07-28T04:42:36;16.40;99.90
14769;DHT22;7476;49.404;11.152;2023-07-28T04:45:03;16.40;99.90
14769;DHT22;7476;49.404;11.152;2023-07-28T04:47:30;16.40;99.90
14769;DHT22;7476;49.404;11.152;2023-07-28T04:49:57;16.50;99.90
14769;DHT22;7476;49.404;11.152;2023-07-28T04:52:25;16.50;99.90
14769;DHT22;7476;49.404;11.152;2023-07-28T04:54:51;16.50;99.90
14769;DHT22;7476;49.404;11.152;2023-07-28T04:57:18;16.50;99.90
14769;DHT22;7476;49.404;11.152;2023-07-28T04:59:45;16.50;99.90
14769;DHT22;7476;49.404;11.152;2023-07-28T05:02:11;16.50;99.90
14769;DHT22;7476;49.404;11.152;2023-07-28T05:04:38;16.50;99.90
14769;DHT22;7476;49.404;11.152;2023-07-28T05:07:05;16.50;99.90
14769;DHT22;7476;49.404;11.152;2023-07-28T05:09:33;16.50;99.90
14769;DHT22;7476;49.404;11.152;2023-07-28T05:11:59;16.50;99.90
14769;DHT22;7476;49.404;11.152;2023-07-28T05:14:26;16.50;99.90
14769;DHT22;7476;49.404;11.152;2023-07-28T05:16:52;16.50;99.90
14769;DHT22;7476;49.404;11.152;2023-07-28T05:19:19;16.50;99.90
14769;DHT22;7476;49.404;11.152;2023-07-28T05:21:46;16.50;99.90
14769;DHT22;7476;49.404;11.152;2023-07-28T05:24:12;16.60;99.90
14769;DHT22;7476;49.404;11.152;2023-07-28T05:26:40;16.60;99.90
14769;DHT22;7476;49.404;11.152;2023-07-28T05:29:07;16.60;99.90
14769;DHT22;7476;49.404;11.152;2023-07-28T05:31:33;16.60;99.90
14769;DHT22;7476;49.404;11.152;2023-07-28T05:34:00;16.60;99.90
14769;DHT22;7476;49.404;11.152;2023-07-28T05:36:27;16.60;99.90
14769;DHT22;7476;49.404;11.152;2023-07-28T05:38:54;16.70;99.90
14769;DHT22;7476;49.404;11.152;2023-07-28T05:41:22;16.70;99.90
14769;DHT22;7476;49.404;11.152;2023-07-28T05:43:50;16.60;99.90
14769;DHT22;7476;49.404;11.152;2023-07-28T05:46:17;16.70;99.90
14769;DHT22;7476;49.404;11.152;2023-07-28T05:48:43;16.70;99.90
14769;DHT22;7476;49.404;11.152;2023-07-28T05:51:10;16.70;99.90
14769;DHT22;7476;49.404;11.152;2023-07-28T05:53:37;16.70;99.90
14769;DHT22;7476;49.404;11.152;2023-07-28T05:56:04;16.80;99.90
14769;DHT22;7476;49.404;11.152;2023-07-28T05:58:30;16.80;99.90
14769;DHT22;7476;49.404;11.152;2023-07-28T06:00:58;16.90;99.90
14769;DHT22;7476;49.404;11.152;2023-07-28T06:03:25;16.90;99.90
14769;DHT22;7476;49.404;11.152;2023-07-28T06:05:54;17.00;99.90
14769;DHT22;7476;49.404;11.152;2023-07-28T06:08:21;17.00;99.90
14769;DHT22;7476;49.404;11.152;2023-07-28T06:10:47;17.10;99.90
14769;DHT22;7476;49.404;11.152;2023-07-28T06:13:14;17.10;99.90
14769;DHT22;7476;49.404;11.152;2023-07-28T06:15:42;17.10;99.90
14769;DHT22;7476;49.404;11.152;2023-07-28T06:18:17;17.20;99.90
14769;DHT22;7476;49.404;11.152;2023-07-28T06:20:44;17.20;99.90
14769;DHT22;7476;49.404;11.152;2023-07-28T06:23:11;17.30;99.90
14769;DHT22;7476;49.404;11.152;2023-07-28T06:25:37;17.30;99.90
14769;DHT22;7476;49.404;11.152;2023-07-28T06:28:09;17.30;99.90
14769;DHT22;7476;49.404;11.152;2023-07-28T06:30:36;17.40;99.90
14769;DHT22;7476;49.404;11.152;2023-07-28T06:33:02;17.50;99.90
14769;DHT22;7476;49.404;11.152;2023-07-28T06:35:30;17.60;99.90
14769;DHT22;7476;49.404;11.152;2023-07-28T06:37:57;17.70;99.90
14769;DHT22;7476;49.404;11.152;2023-07-28T06:40:24;17.80;99.90
14769;DHT22;7476;49.404;11.152;2023-07-28T06:42:50;17.80;99.90
14769;DHT22;7476;49.404;11.152;2023-07-28T06:45:17;17.70;99.90
14769;DHT22;7476;49.404;11.152;2023-07-28T06:47:44;17.70;99.90
14769;DHT22;7476;49.404;11.152;2023-07-28T06:50:11;17.60;99.90
14769;DHT22;7476;49.404;11.152;2023-07-28T06:52:39;17.60;99.90
14769;DHT22;7476;49.404;11.152;2023-07-28T06:55:06;17.60;99.90
14769;DHT22;7476;49.404;11.152;2023-07-28T06:57:33;17.50;99.90
14769;DHT22;7476;49.404;11.152;2023-07-28T07:00:01;17.50;99.90
14769;DHT22;7476;49.404;11.152;2023-07-28T07:02:28;17.50;99.90
14769;DHT22;7476;49.404;11.152;2023-07-28T07:04:55;17.60;99.90
14769;DHT22;7476;49.404;11.152;2023-07-28T07:07:22;17.60;99.90
14769;DHT22;7476;49.404;11.152;2023-07-28T07:09:50;17.70;99.90
14769;DHT22;7476;49.404;11.152;2023-07-28T07:12:17;17.70;99.90
14769;DHT22;7476;49.404;11.152;2023-07-28T07:14:44;17.60;99.90
14769;DHT22;7476;49.404;11.152;2023-07-28T07:17:11;17.60;99.90
14769;DHT22;7476;49.404;11.152;2023-07-28T07:19:38;17.60;99.90
14769;DHT22;7476;49.404;11.152;2023-07-28T07:22:05;17.70;99.90
14769;DHT22;7476;49.404;11.152;2023-07-28T07:24:32;17.70;99.90
14769;DHT22;7476;49.404;11.152;2023-07-28T07:27:00;17.70;99.90
14769;DHT22;7476;49.404;11.152;2023-07-28T07:29:26;17.70;99.90
14769;DHT22;7476;49.404;11.152;2023-07-28T07:31:53;17.80;99.90
14769;DHT22;7476;49.404;11.152;2023-07-28T07:34:22;17.90;99.90
14769;DHT22;7476;49.404;11.152;2023-07-28T07:36:48;17.90;99.90
14769;DHT22;7476;49.404;11.152;2023-07-28T07:39:15;17.90;99.90
14769;DHT22;7476;49.404;11.152;2023-07-28T07:41:42;17.80;99.90
14769;DHT22;7476;49.404;11.152;2023-07-28T07:44:10;17.80;99.90
14769;DHT22;7476;49.404;11.152;2023-07-28T07:46:37;17.70;99.90
14769;DHT22;7476;49.404;11.152;2023-07-28T07:49:03;17.80;99.90
14769;DHT22;7476;49.404;11.152;2023-07-28T07:51:31;17.80;99.90
14769;DHT22;7476;49.404;11.152;2023-07-28T07:53:59;17.80;99.90
14769;DHT22;7476;49.404;11.152;2023-07-28T07:56:26;17.80;99.90
14769;DHT22;7476;49.404;11.152;2023-07-28T07:58:53;17.80;99.90
14769;DHT22;7476;49.404;11.152;2023-07-28T08:01:21;17.80;99.90
14769;DHT22;7476;49.404;11.152;2023-07-28T08:03:48;17.90;99.90
14769;DHT22;7476;49.404;11.152;2023-07-28T08:06:14;18.10;99.90
14769;DHT22;7476;49.404;11.152;2023-07-28T08:08:41;18.20;99.90
14769;DHT22;7476;49.404;11.152;2023-07-28T08:11:08;18.30;99.90
14769;DHT22;7476;49.404;11.152;2023-07-28T08:13:36;18.40;99.90
14769;DHT22;7476;49.404;11.152;2023-07-28T08:16:04;18.40;99.90
14769;DHT22;7476;49.404;11.152;2023-07-28T08:18:33;18.50;99.90
14769;DHT22;7476;49.404;11.152;2023-07-28T08:20:59;18.60;99.90
14769;DHT22;7476;49.404;11.152;2023-07-28T08:23:26;18.80;99.90
14769;DHT22;7476;49.404;11.152;2023-07-28T08:25:53;19.00;99.90
14769;DHT22;7476;49.404;11.152;2023-07-28T08:28:20;19.20;99.90
14769;DHT22;7476;49.404;11.152;2023-07-28T08:30:54;19.40;99.90
14769;DHT22;7476;49.404;11.152;2023-07-28T08:33:21;19.50;99.90
14769;DHT22;7476;49.404;11.152;2023-07-28T08:35:49;19.70;99.90
14769;DHT22;7476;49.404;11.152;2023-07-28T08:38:16;20.00;99.90
14769;DHT22;7476;49.404;11.152;2023-07-28T08:40:43;20.20;99.90
14769;DHT22;7476;49.404;11.152;2023-07-28T08:43:10;20.40;99.90
14769;DHT22;7476;49.404;11.152;2023-07-28T08:45:37;21.00;99.90
14769;DHT22;7476;49.404;11.152;2023-07-28T08:48:04;21.60;99.90
14769;DHT22;7476;49.404;11.152;2023-07-28T08:50:31;22.20;99.90
14769;DHT22;7476;49.404;11.152;2023-07-28T08:52:59;22.70;99.90
14769;DHT22;7476;49.404;11.152;2023-07-28T08:55:26;22.80;99.90
14769;DHT22;7476;49.404;11.152;2023-07-28T08:57:53;23.10;99.90
14769;DHT22;7476;49.404;11.152;2023-07-28T09:00:20;23.20;99.90
14769;DHT22;7476;49.404;11.152;2023-07-28T09:02:49;23.20;99.90
14769;DHT22;7476;49.404;11.152;2023-07-28T09:05:19;23.00;99.90
14769;DHT22;7476;49.404;11.152;2023-07-28T09:07:49;22.60;99.90
14769;DHT22;7476;49.404;11.152;2023-07-28T09:10:18;22.30;99.90
14769;DHT22;7476;49.404;11.152;2023-07-28T09:12:48;22.30;99.90
14769;DHT22;7476;49.404;11.152;2023-07-28T09:15:15;22.30;99.90
14769;DHT22;7476;49.404;11.152;2023-07-28T09:17:43;22.30;99.90
14769;DHT22;7476;49.404;11.152;2023-07-28T09:20:13;22.40;99.90
14769;DHT22;7476;49.404;11.152;2023-07-28T09:22:40;22.70;99.90
14769;DHT22;7476;49.404;11.152;2023-07-28T09:25:12;22.70;99.90
14769;DHT22;7476;49.404;11.152;2023-07-28T09:27:40;22.70;99.90
14769;DHT22;7476;49.404;11.152;2023-07-28T09:30:08;22.80;99.90
14769;DHT22;7476;49.404;11.152;2023-07-28T09:32:34;22.70;99.90
14769;DHT22;7476;49.404;11.152;2023-07-28T09:35:07;22.60;99.90
14769;DHT22;7476;49.404;11.152;2023-07-28T09:37:37;22.30;99.90
14769;DHT22;7476;49.404;11.152;2023-07-28T09:40:07;22.00;99.90
14769;DHT22;7476;49.404;11.152;2023-07-28T09:42:35;21.70;99.90
14769;DHT22;7476;49.404;11.152;2023-07-28T09:45:04;21.30;99.90
14769;DHT22;7476;49.404;11.152;2023-07-28T09:47:33;21.20;99.90
14769;DHT22;7476;49.404;11.152;2023-07-28T09:50:02;21.00;99.90
14769;DHT22;7476;49.404;11.152;2023-07-28T09:52:32;21.00;99.90
14769;DHT22;7476;49.404;11.152;2023-07-28T09:55:00;20.90;99.90
14769;DHT22;7476;49.404;11.152;2023-07-28T09:57:29;20.80;99.90
14769;DHT22;7476;49.404;11.152;2023-07-28T10:00:00;20.70;99.90
14769;DHT22;7476;49.404;11.152;2023-07-28T10:02:30;20.70;99.90
14769;DHT22;7476;49.404;11.152;2023-07-28T10:04:57;20.60;99.90
14769;DHT22;7476;49.404;11.152;2023-07-28T10:07:24;20.80;99.90
14769;DHT22;7476;49.404;11.152;2023-07-28T10:09:51;20.80;99.90
14769;DHT22;7476;49.404;11.152;2023-07-28T10:12:18;21.00;99.90
14769;DHT22;7476;49.404;11.152;2023-07-28T10:15:00;21.10;99.90
14769;DHT22;7476;49.404;11.152;2023-07-28T10:17:32;21.50;99.90
14769;DHT22;7476;49.404;11.152;2023-07-28T10:20:02;22.20;99.90
14769;DHT22;7476;49.404;11.152;2023-07-28T10:22:32;22.90;99.90
14769;DHT22;7476;49.404;11.152;2023-07-28T10:25:01;23.40;99.90
14769;DHT22;7476;49.404;11.152;2023-07-28T10:27:33;23.60;99.90
14769;DHT22;7476;49.404;11.152;2023-07-28T10:30:03;23.60;99.90
14769;DHT22;7476;49.404;11.152;2023-07-28T10:32:39;23.40;99.90
14769;DHT22;7476;49.404;11.152;2023-07-28T10:35:15;23.40;99.90
14769;DHT22;7476;49.404;11.152;2023-07-28T10:37:48;23.00;99.90
14769;DHT22;7476;49.404;11.152;2023-07-28T10:40:27;22.20;99.90
14769;DHT22;7476;49.404;11.152;2023-07-28T10:42:55;21.50;99.90
14769;DHT22;7476;49.404;11.152;2023-07-28T10:45:23;21.20;99.90
14769;DHT22;7476;49.404;11.152;2023-07-28T10:47:52;21.10;99.90
14769;DHT22;7476;49.404;11.152;2023-07-28T10:50:21;21.00;99.90
14769;DHT22;7476;49.404;11.152;2023-07-28T10:52:48;20.90;99.90
14769;DHT22;7476;49.404;11.152;2023-07-28T10:55:15;20.90;99.90
14769;DHT22;7476;49.404;11.152;2023-07-28T10:57:43;21.30;99.90
14769;DHT22;7476;49.404;11.152;2023-07-28T11:00:11;21.70;99.90
14769;DHT22;7476;49.404;11.152;2023-07-28T11:02:41;22.00;99.90
14769;DHT22;7476;49.404;11.152;2023-07-28T11:05:12;22.60;99.90
14769;DHT22;7476;49.404;11.152;2023-07-28T11:07:41;22.80;99.90
14769;DHT22;7476;49.404;11.152;2023-07-28T11:10:09;23.30;99.90
14769;DHT22;7476;49.404;11.152;2023-07-28T11:12:39;23.70;99.90
14769;DHT22;7476;49.404;11.152;2023-07-28T11:15:08;24.40;99.90
14769;DHT22;7476;49.404;11.152;2023-07-28T11:17:36;24.50;99.90
14769;DHT22;7476;49.404;11.152;2023-07-28T11:20:04;24.70;99.90
14769;DHT22;7476;49.404;11.152;2023-07-28T11:22:37;24.60;99.90
14769;DHT22;7476;49.404;11.152;2023-07-28T11:25:06;24.30;99.90
14769;DHT22;7476;49.404;11.152;2023-07-28T11:27:34;23.90;99.90
14769;DHT22;7476;49.404;11.152;2023-07-28T11:30:02;23.60;99.90
14769;DHT22;7476;49.404;11.152;2023-07-28T11:32:30;23.90;99.90
14769;DHT22;7476;49.404;11.152;2023-07-28T11:35:03;24.40;99.90
14769;DHT22;7476;49.404;11.152;2023-07-28T11:37:30;25.20;99.90
14769;DHT22;7476;49.404;11.152;2023-07-28T11:39:59;25.40;99.90
14769;DHT22;7476;49.404;11.152;2023-07-28T11:42:26;25.00;99.90
14769;DHT22;7476;49.404;11.152;2023-07-28T11:44:52;25.00;99.90
14769;DHT22;7476;49.404;11.152;2023-07-28T11:47:20;24.80;99.90
14769;DHT22;7476;49.404;11.152;2023-07-28T11:49:47;24.50;99.90
14769;DHT22;7476;49.404;11.152;2023-07-28T11:52:14;24.40;99.90
14769;DHT22;7476;49.404;11.152;2023-07-28T11:54:41;24.50;99.90
14769;DHT22;7476;49.404;11.152;2023-07-28T11:57:12;24.80;99.90
14769;DHT22;7476;49.404;11.152;2023-07-28T11:59:40;24.80;99.90
14769;DHT22;7476;49.404;11.152;2023-07-28T12:02:07;25.20;99.90
14769;DHT22;7476;49.404;11.152;2023-07-28T12:04:36;25.30;99.90
14769;DHT22;7476;49.404;11.152;2023-07-28T12:07:07;24.50;99.90
14769;DHT22;7476;49.404;11.152;2023-07-28T12:09:47;24.20;99.90
14769;DHT22;7476;49.404;11.152;2023-07-28T12:12:18;24.20;99.90
14769;DHT22;7476;49.404;11.152;2023-07-28T12:14:45;24.30;99.90
14769;DHT22;7476;49.404;11.152;2023-07-28T12:17:13;24.60;99.90
14769;DHT22;7476;49.404;11.152;2023-07-28T12:19:41;24.80;99.90
14769;DHT22;7476;49.404;11.152;2023-07-28T12:22:08;24.80;99.90
14769;DHT22;7476;49.404;11.152;2023-07-28T12:24:35;25.00;99.90
14769;DHT22;7476;49.404;11.152;2023-07-28T12:27:02;25.20;99.90
14769;DHT22;7476;49.404;11.152;2023-07-28T12:29:30;25.50;99.90
14769;DHT22;7476;49.404;11.152;2023-07-28T12:31:56;25.30;99.90
14769;DHT22;7476;49.404;11.152;2023-07-28T12:34:23;24.90;99.90
14769;DHT22;7476;49.404;11.152;2023-07-28T12:36:50;24.50;99.90
14769;DHT22;7476;49.404;11.152;2023-07-28T12:39:16;24.20;99.90
14769;DHT22;7476;49.404;11.152;2023-07-28T12:41:43;23.80;99.90
14769;DHT22;7476;49.404;11.152;2023-07-28T12:44:10;23.10;99.90
14769;DHT22;7476;49.404;11.152;2023-07-28T12:46:38;22.80;99.90
14769;DHT22;7476;49.404;11.152;2023-07-28T12:49:05;22.60;99.90
14769;DHT22;7476;49.404;11.152;2023-07-28T12:51:32;22.30;99.90
14769;DHT22;7476;49.404;11.152;2023-07-28T12:53:59;22.20;99.90
14769;DHT22;7476;49.404;11.152;2023-07-28T12:56:25;22.70;99.90
14769;DHT22;7476;49.404;11.152;2023-07-28T12:58:52;23.90;99.90
14769;DHT22;7476;49.404;11.152;2023-07-28T13:01:19;25.40;99.90
14769;DHT22;7476;49.404;11.152;2023-07-28T13:03:47;26.40;99.90
14769;DHT22;7476;49.404;11.152;2023-07-28T13:06:13;26.90;99.90
14769;DHT22;7476;49.404;11.152;2023-07-28T13:08:40;27.00;99.90
14769;DHT22;7476;49.404;11.152;2023-07-28T13:11:07;27.30;99.90
14769;DHT22;7476;49.404;11.152;2023-07-28T13:13:33;28.00;99.90
14769;DHT22;7476;49.404;11.152;2023-07-28T13:16:00;28.60;99.90
14769;DHT22;7476;49.404;11.152;2023-07-28T13:18:27;27.80;99.90
14769;DHT22;7476;49.404;11.152;2023-07-28T13:20:56;27.00;99.90
14769;DHT22;7476;49.404;11.152;2023-07-28T13:23:23;25.80;99.90
14769;DHT22;7476;49.404;11.152;2023-07-28T13:25:49;24.90;99.90
14769;DHT22;7476;49.404;11.152;2023-07-28T13:28:17;24.10;99.90
14769;DHT22;7476;49.404;11.152;2023-07-28T13:30:44;23.40;99.90
14769;DHT22;7476;49.404;11.152;2023-07-28T13:33:10;23.20;99.90
14769;DHT22;7476;49.404;11.152;2023-07-28T13:35:37;23.70;99.90
14769;DHT22;7476;49.404;11.152;2023-07-28T13:38:05;24.50;99.90
14769;DHT22;7476;49.404;11.152;2023-07-28T13:40:32;25.20;99.90
14769;DHT22;7476;49.404;11.152;2023-07-28T13:42:58;25.60;99.90
14769;DHT22;7476;49.404;11.152;2023-07-28T13:45:25;25.60;99.90
14769;DHT22;7476;49.404;11.152;2023-07-28T13:47:51;25.60;99.90
14769;DHT22;7476;49.404;11.152;2023-07-28T13:50:18;25.80;99.90
14769;DHT22;7476;49.404;11.152;2023-07-28T13:52:45;26.00;99.90
14769;DHT22;7476;49.404;11.152;2023-07-28T13:55:13;27.00;99.90
14769;DHT22;7476;49.404;11.152;2023-07-28T13:57:40;27.50;99.90
14769;DHT22;7476;49.404;11.152;2023-07-28T14:00:07;28.30;99.90
14769;DHT22;7476;49.404;11.152;2023-07-28T14:02:35;28.50;99.90
14769;DHT22;7476;49.404;11.152;2023-07-28T14:05:02;28.50;99.90
14769;DHT22;7476;49.404;11.152;2023-07-28T14:07:29;28.10;99.90
14769;DHT22;7476;49.404;11.152;2023-07-28T14:09:56;28.20;99.90
14769;DHT22;7476;49.404;11.152;2023-07-28T14:12:23;28.40;99.90
14769;DHT22;7476;49.404;11.152;2023-07-28T14:14:50;28.70;99.90
14769;DHT22;7476;49.404;11.152;2023-07-28T14:17:17;27.90;99.90
14769;DHT22;7476;49.404;11.152;2023-07-28T14:19:43;28.20;99.90
14769;DHT22;7476;49.404;11.152;2023-07-28T14:22:10;27.30;99.90
14769;DHT22;7476;49.404;11.152;2023-07-28T14:24:37;26.80;99.90
14769;DHT22;7476;49.404;11.152;2023-07-28T14:27:04;26.80;99.90
14769;DHT22;7476;49.404;11.152;2023-07-28T14:29:33;26.70;99.90
14769;DHT22;7476;49.404;11.152;2023-07-28T14:31:59;26.60;99.90
14769;DHT22;7476;49.404;11.152;2023-07-28T14:34:26;26.40;99.90
14769;DHT22;7476;49.404;11.152;2023-07-28T14:36:52;26.70;99.90
14769;DHT22;7476;49.404;11.152;2023-07-28T14:39:19;26.50;99.90
14769;DHT22;7476;49.404;11.152;2023-07-28T14:41:46;26.20;99.90
14769;DHT22;7476;49.404;11.152;2023-07-28T14:44:12;25.90;99.90
14769;DHT22;7476;49.404;11.152;2023-07-28T14:46:40;26.00;99.90
14769;DHT22;7476;49.404;11.152;2023-07-28T14:49:07;26.30;99.90
14769;DHT22;7476;49.404;11.152;2023-07-28T14:51:33;26.00;99.90
14769;DHT22;7476;49.404;11.152;2023-07-28T14:54:00;25.80;99.90
14769;DHT22;7476;49.404;11.152;2023-07-28T14:56:27;25.50;99.90
14769;DHT22;7476;49.404;11.152;2023-07-28T14:58:53;25.10;99.90
14769;DHT22;7476;49.404;11.152;2023-07-28T15:01:21;25.00;99.90
14769;DHT22;7476;49.404;11.152;2023-07-28T15:03:49;24.70;99.90
14769;DHT22;7476;49.404;11.152;2023-07-28T15:06:16;24.50;99.90
14769;DHT22;7476;49.404;11.152;2023-07-28T15:08:42;24.30;99.90
14769;DHT22;7476;49.404;11.152;2023-07-28T15:11:09;24.30;99.90
14769;DHT22;7476;49.404;11.152;2023-07-28T15:13:35;24.40;99.90
14769;DHT22;7476;49.404;11.152;2023-07-28T15:16:02;24.40;99.90
14769;DHT22;7476;49.404;11.152;2023-07-28T15:18:29;24.40;99.90
14769;DHT22;7476;49.404;11.152;2023-07-28T15:20:57;24.30;99.90
14769;DHT22;7476;49.404;11.152;2023-07-28T15:23:25;24.30;99.90
14769;DHT22;7476;49.404;11.152;2023-07-28T15:25:52;24.20;99.90
14769;DHT22;7476;49.404;11.152;2023-07-28T15:28:23;24.00;99.90
14769;DHT22;7476;49.404;11.152;2023-07-28T15:30:49;23.90;99.90